createdAt,value
2024-02-22T00:02:08.343Z,99362.00
2024-02-22T00:04:38.642Z,99363.00
2024-02-22T00:07:11.294Z,99361.00
2024-02-22T00:09:40.116Z,99340.00
2024-02-22T00:12:09.541Z,99326.00
2024-02-22T00:14:38.880Z,99314.00
2024-02-22T00:17:07.901Z,99322.00
2024-02-22T00:19:38.198Z,99309.00
2024-02-22T00:22:06.967Z,99310.00
2024-02-22T00:24:35.680Z,99296.00
2024-02-22T00:27:04.551Z,99293.00
2024-02-22T00:29:33.186Z,99293.00
2024-02-22T00:32:01.926Z,99284.00
2024-02-22T00:34:30.697Z,99279.00
2024-02-22T00:37:00.989Z,99259.00
2024-02-22T00:39:29.657Z,99257.00
2024-02-22T00:41:58.372Z,99262.00
2024-02-22T00:44:27.142Z,99247.00
2024-02-22T00:46:55.908Z,99237.00
2024-02-22T00:49:24.929Z,99237.00
2024-02-22T00:51:53.644Z,99232.00
2024-02-22T00:54:23.813Z,99234.00
2024-02-22T00:56:52.604Z,99223.00
2024-02-22T00:59:21.322Z,99224.00
2024-02-22T01:01:49.999Z,99213.00
2024-02-22T01:04:18.791Z,99207.00
2024-02-22T01:06:47.434Z,99206.00
2024-02-22T01:09:16.768Z,99202.00
2024-02-22T01:11:47.143Z,99199.00
2024-02-22T01:14:17.570Z,99204.00
2024-02-22T01:16:46.543Z,99198.00
2024-02-22T01:19:15.316Z,99193.00
2024-02-22T01:21:44.010Z,99192.00
2024-02-22T01:24:12.868Z,99187.00
2024-02-22T01:26:41.546Z,99188.00
2024-02-22T01:29:11.666Z,99167.00
2024-02-22T01:31:40.431Z,99174.00
2024-02-22T01:34:09.238Z,99156.00
2024-02-22T01:36:37.999Z,99138.00
2024-02-22T01:39:07.760Z,99146.00
2024-02-22T01:41:36.488Z,99136.00
2024-02-22T01:44:05.495Z,99137.00
2024-02-22T01:46:36.388Z,99130.00
2024-02-22T01:49:07.394Z,99118.00
2024-02-22T01:51:37.108Z,99119.00
2024-02-22T01:54:06.165Z,99114.00
2024-02-22T01:56:34.896Z,99105.00
2024-02-22T01:59:03.795Z,99100.00
2024-02-22T02:01:33.514Z,99104.00
2024-02-22T02:04:03.980Z,99098.00
2024-02-22T02:06:32.774Z,99091.00
2024-02-22T02:09:03.451Z,99084.00
2024-02-22T02:11:33.573Z,99071.00
2024-02-22T02:14:02.493Z,99061.00
2024-02-22T02:16:31.216Z,99058.00
2024-02-22T02:19:00.847Z,99056.00
2024-02-22T02:21:35.485Z,99060.00
2024-02-22T02:24:15.421Z,99040.00
2024-02-22T02:26:45.654Z,99034.00
2024-02-22T02:29:14.884Z,99027.00
2024-02-22T02:31:43.703Z,99028.00
2024-02-22T02:34:12.571Z,99024.00
2024-02-22T02:36:41.311Z,99017.00
2024-02-22T02:39:10.423Z,99008.00
2024-02-22T02:41:39.128Z,99002.00
2024-02-22T02:44:09.412Z,99003.00
2024-02-22T02:46:38.249Z,98989.00
2024-02-22T02:49:07.046Z,98985.00
2024-02-22T02:51:35.951Z,98982.00
2024-02-22T02:54:04.721Z,98977.00
2024-02-22T02:56:34.193Z,98969.00
2024-02-22T02:59:03.127Z,98967.00
2024-02-22T03:01:33.378Z,98971.00
2024-02-22T03:04:02.128Z,98956.00
2024-02-22T03:06:30.865Z,98951.00
2024-02-22T03:08:59.744Z,98949.00
2024-02-22T03:11:28.636Z,98951.00
2024-02-22T03:13:57.454Z,98930.00
2024-02-22T03:16:26.870Z,98934.00
2024-02-22T03:18:56.977Z,98933.00
2024-02-22T03:21:26.792Z,98929.00
2024-02-22T03:23:55.800Z,98925.00
2024-02-22T03:26:25.251Z,98917.00
2024-02-22T03:28:54.057Z,98914.00
2024-02-22T03:31:23.725Z,98903.00
2024-02-22T03:33:52.631Z,98910.00
2024-02-22T03:36:22.840Z,98906.00
2024-02-22T03:38:54.517Z,98902.00
2024-02-22T03:41:26.843Z,98899.00
2024-02-22T03:43:55.678Z,98898.00
2024-02-22T03:46:24.399Z,98899.00
2024-02-22T03:48:53.100Z,98890.00
2024-02-22T03:51:23.635Z,98888.00
2024-02-22T03:53:52.406Z,98899.00
2024-02-22T03:56:21.207Z,98888.00
2024-02-22T03:58:49.980Z,98874.00
2024-02-22T04:01:19.922Z,98871.00
2024-02-22T04:03:48.772Z,98870.00
2024-02-22T04:06:18.630Z,98873.00
2024-02-22T04:08:48.996Z,98860.00
2024-02-22T04:11:17.833Z,98862.00
2024-02-22T04:13:47.267Z,98856.00
2024-02-22T04:16:16.036Z,98845.00
2024-02-22T04:18:45.134Z,98845.00
2024-02-22T04:21:14.074Z,98838.00
2024-02-22T04:23:42.867Z,98833.00
2024-02-22T04:26:13.127Z,98830.00
2024-02-22T04:28:41.912Z,98826.00
2024-02-22T04:31:10.812Z,98821.00
2024-02-22T04:33:39.564Z,98814.00
2024-02-22T04:36:09.241Z,98810.00
2024-02-22T04:38:38.062Z,98806.00
2024-02-22T04:41:07.058Z,98802.00
2024-02-22T04:43:37.202Z,98799.00
2024-02-22T04:46:06.196Z,98802.00
2024-02-22T04:48:35.021Z,98796.00
2024-02-22T04:51:04.351Z,98782.00
2024-02-22T04:53:33.062Z,98784.00
2024-02-22T04:56:01.845Z,98782.00
2024-02-22T04:58:30.576Z,98776.00
2024-02-22T05:01:00.762Z,98763.00
2024-02-22T05:03:29.466Z,98765.00
2024-02-22T05:05:58.595Z,98759.00
2024-02-22T05:08:30.039Z,98751.00
2024-02-22T05:10:59.403Z,98748.00
2024-02-22T05:13:28.191Z,98750.00
2024-02-22T05:15:56.929Z,98740.00
2024-02-22T05:18:27.115Z,98741.00
2024-02-22T05:20:55.835Z,98731.00
2024-02-22T05:23:25.957Z,98731.00
2024-02-22T05:25:54.768Z,98721.00
2024-02-22T05:28:23.556Z,98717.00
2024-02-22T05:30:52.530Z,98716.00
2024-02-22T05:33:21.351Z,98709.00
2024-02-22T05:35:51.551Z,98710.00
2024-02-22T05:38:20.333Z,98708.00
2024-02-22T05:40:49.153Z,98693.00
2024-02-22T05:43:17.955Z,98693.00
2024-02-22T05:45:48.086Z,98696.00
2024-02-22T05:48:17.033Z,98680.00
2024-02-22T05:50:48.402Z,98685.00
2024-02-22T05:53:19.613Z,98679.00
2024-02-22T05:55:48.394Z,98676.00
2024-02-22T05:58:17.742Z,98680.00
2024-02-22T06:00:46.692Z,98674.00
2024-02-22T06:03:15.514Z,98680.00
2024-02-22T06:05:44.929Z,98669.00
2024-02-22T06:08:13.902Z,98668.00
2024-02-22T06:10:44.261Z,98662.00
2024-02-22T06:13:13.065Z,98657.00
2024-02-22T06:15:41.762Z,98653.00
2024-02-22T06:18:10.524Z,98656.00
2024-02-22T06:20:39.314Z,98662.00
2024-02-22T06:23:08.234Z,98654.00
2024-02-22T06:25:39.314Z,98660.00
2024-02-22T06:28:11.202Z,98647.00
2024-02-22T06:30:41.392Z,98654.00
2024-02-22T06:33:10.573Z,98648.00
2024-02-22T06:35:39.389Z,98638.00
2024-02-22T06:38:08.176Z,98634.00
2024-02-22T06:40:48.310Z,98630.00
2024-02-22T06:43:18.416Z,98634.00
2024-02-22T06:45:47.441Z,98629.00
2024-02-22T06:48:16.985Z,98616.00
2024-02-22T06:50:45.884Z,98615.00
2024-02-22T06:53:14.837Z,98612.00
2024-02-22T06:55:44.591Z,98612.00
2024-02-22T06:58:13.647Z,98612.00
2024-02-22T07:00:43.778Z,98597.00
2024-02-22T07:03:12.702Z,98596.00
2024-02-22T07:05:41.489Z,98593.00
2024-02-22T07:08:10.353Z,98587.00
2024-02-22T07:10:39.179Z,98585.00
2024-02-22T07:13:07.869Z,98583.00
2024-02-22T07:15:36.576Z,98591.00
2024-02-22T07:18:07.390Z,98581.00
2024-02-22T07:20:36.261Z,98584.00
2024-02-22T07:23:05.811Z,98586.00
2024-02-22T07:25:34.722Z,98575.00
2024-02-22T07:28:04.577Z,98572.00
2024-02-22T07:30:34.308Z,98568.00
2024-02-22T07:33:03.155Z,98563.00
2024-02-22T07:35:33.531Z,98559.00
2024-02-22T07:38:02.430Z,98562.00
2024-02-22T07:40:32.966Z,98566.00
2024-02-22T07:43:01.747Z,98554.00
2024-02-22T07:45:31.236Z,98558.00
2024-02-22T07:48:02.616Z,98560.00
2024-02-22T07:50:33.298Z,98555.00
2024-02-22T07:53:02.185Z,98558.00
2024-02-22T07:55:31.083Z,98559.00
2024-02-22T07:57:59.844Z,98549.00
2024-02-22T08:00:28.562Z,98555.00
2024-02-22T08:02:57.420Z,98531.00
2024-02-22T08:05:26.171Z,98526.00
2024-02-22T08:07:56.371Z,98525.00
2024-02-22T08:10:25.185Z,98516.00
2024-02-22T08:12:54.779Z,98523.00
2024-02-22T08:15:23.557Z,98510.00
2024-02-22T08:17:52.293Z,98522.00
2024-02-22T08:20:21.283Z,98507.00
2024-02-22T08:22:50.208Z,98503.00
2024-02-22T08:25:20.648Z,98507.00
2024-02-22T08:27:58.965Z,98503.00
2024-02-22T08:30:35.226Z,98499.00
2024-02-22T08:33:04.296Z,98503.00
2024-02-22T08:35:33.209Z,98503.00
2024-02-22T08:38:02.075Z,98490.00
2024-02-22T08:40:39.020Z,98497.00
2024-02-22T08:43:09.357Z,98495.00
2024-02-22T08:45:39.035Z,98489.00
2024-02-22T08:48:09.166Z,98484.00
2024-02-22T08:50:38.042Z,98477.00
2024-02-22T08:53:07.287Z,98476.00
2024-02-22T08:55:37.525Z,98486.00
2024-02-22T08:58:06.752Z,98475.00
2024-02-22T09:00:35.633Z,98474.00
2024-02-22T09:03:04.377Z,98476.00
2024-02-22T09:05:33.355Z,98477.00
2024-02-22T09:08:02.264Z,98470.00
2024-02-22T09:10:31.098Z,98477.00
2024-02-22T09:13:01.572Z,98472.00
2024-02-22T09:15:30.266Z,98473.00
2024-02-22T09:17:59.094Z,98472.00
2024-02-22T09:20:28.707Z,98470.00
2024-02-22T09:22:57.711Z,98462.00
2024-02-22T09:25:26.597Z,98459.00
2024-02-22T09:27:55.391Z,98458.00
2024-02-22T09:30:25.492Z,98448.00
2024-02-22T09:32:54.239Z,98441.00
2024-02-22T09:35:26.492Z,98445.00
2024-02-22T09:37:56.321Z,98442.00
2024-02-22T09:40:26.828Z,98439.00
2024-02-22T09:42:56.044Z,98441.00
2024-02-22T09:45:26.438Z,98446.00
2024-02-22T09:47:56.214Z,98443.00
2024-02-22T09:50:25.952Z,98428.00
2024-02-22T09:52:55.718Z,98424.00
2024-02-22T09:55:24.782Z,98418.00
2024-02-22T09:57:54.272Z,98429.00
2024-02-22T10:00:23.096Z,98428.00
2024-02-22T10:02:53.304Z,98415.00
2024-02-22T10:05:22.252Z,98407.00
2024-02-22T10:07:52.109Z,98415.00
2024-02-22T10:10:27.358Z,98399.00
2024-02-22T10:12:58.131Z,98406.00
2024-02-22T10:15:30.466Z,98410.00
2024-02-22T10:18:00.613Z,98398.00
2024-02-22T10:20:35.634Z,98404.00
2024-02-22T10:23:08.702Z,98397.00
2024-02-22T10:25:38.441Z,98399.00
2024-02-22T10:28:09.355Z,98399.00
2024-02-22T10:30:38.275Z,98383.00
2024-02-22T10:33:10.997Z,98395.00
2024-02-22T10:35:41.988Z,98383.00
2024-02-22T10:38:12.507Z,98365.00
2024-02-22T10:40:46.198Z,98358.00
2024-02-22T10:43:15.109Z,98352.00
2024-02-22T10:45:45.025Z,98346.00
2024-02-22T10:48:15.784Z,98351.00
2024-02-22T10:50:46.459Z,98344.00
2024-02-22T10:53:17.286Z,98351.00
2024-02-22T10:55:52.256Z,98336.00
2024-02-22T10:58:28.745Z,98325.00
2024-02-22T11:00:59.995Z,98334.00
2024-02-22T11:03:32.795Z,98319.00
2024-02-22T11:06:05.137Z,98320.00
2024-02-22T11:08:33.963Z,98327.00
2024-02-22T11:11:07.854Z,98318.00
2024-02-22T11:13:37.918Z,98316.00
2024-02-22T11:16:17.087Z,98310.00
2024-02-22T11:18:50.910Z,98315.00
2024-02-22T11:21:21.422Z,98305.00
2024-02-22T11:23:51.536Z,98299.00
2024-02-22T11:26:20.480Z,98296.00
2024-02-22T11:28:54.950Z,98286.00
2024-02-22T11:31:25.223Z,98278.00
2024-02-22T11:33:56.246Z,98284.00
2024-02-22T11:36:25.585Z,98284.00
2024-02-22T11:39:00.955Z,98275.00
2024-02-22T11:41:31.485Z,98278.00
2024-02-22T11:44:08.235Z,98274.00
2024-02-22T11:46:38.611Z,98261.00
2024-02-22T11:49:10.293Z,98254.00
2024-02-22T11:51:41.167Z,98252.00
2024-02-22T11:54:10.633Z,98248.00
2024-02-22T11:56:39.397Z,98240.00
2024-02-22T11:59:09.574Z,98232.00
2024-02-22T12:01:40.016Z,98228.00
2024-02-22T12:04:10.312Z,98226.00
2024-02-22T12:06:39.954Z,98211.00
2024-02-22T12:09:13.180Z,98221.00
2024-02-22T12:11:43.940Z,98201.00
2024-02-22T12:14:16.174Z,98191.00
2024-02-22T12:16:47.192Z,98190.00
2024-02-22T12:19:19.226Z,98189.00
2024-02-22T12:21:49.217Z,98184.00
2024-02-22T12:24:18.043Z,98174.00
2024-02-22T12:26:53.654Z,98168.00
2024-02-22T12:29:22.470Z,98166.00
2024-02-22T12:31:51.156Z,98159.00
2024-02-22T12:34:21.394Z,98156.00
2024-02-22T12:36:50.968Z,98160.00
2024-02-22T12:39:20.678Z,98150.00
2024-02-22T12:41:49.395Z,98140.00
2024-02-22T12:44:18.224Z,98140.00
2024-02-22T12:46:49.337Z,98134.00
2024-02-22T12:49:18.127Z,98130.00
2024-02-22T12:51:48.812Z,98120.00
2024-02-22T12:54:19.809Z,98115.00
2024-02-22T12:56:48.521Z,98115.00
2024-02-22T12:59:17.393Z,98113.00
2024-02-22T13:01:49.054Z,98113.00
2024-02-22T13:04:18.140Z,98114.00
2024-02-22T13:06:48.393Z,98096.00
2024-02-22T13:09:17.181Z,98100.00
2024-02-22T13:11:46.314Z,98103.00
2024-02-22T13:14:15.450Z,98100.00
2024-02-22T13:16:44.424Z,98100.00
2024-02-22T13:19:14.148Z,98100.00
2024-02-22T13:21:44.978Z,98093.00
2024-02-22T13:24:15.333Z,98085.00
2024-02-22T13:26:44.171Z,98075.00
2024-02-22T13:29:12.953Z,98064.00
2024-02-22T13:31:41.822Z,98059.00
2024-02-22T13:34:10.901Z,98057.00
2024-02-22T13:36:39.957Z,98052.00
2024-02-22T13:39:10.793Z,98045.00
2024-02-22T13:41:41.118Z,98037.00
2024-02-22T13:44:17.413Z,98040.00
2024-02-22T13:46:51.525Z,98034.00
2024-02-22T13:49:21.688Z,98029.00
2024-02-22T13:51:51.336Z,98016.00
2024-02-22T13:54:20.520Z,98011.00
2024-02-22T13:56:50.777Z,97996.00
2024-02-22T13:59:20.962Z,97995.00
2024-02-22T14:01:50.428Z,97988.00
2024-02-22T14:04:19.491Z,97977.00
2024-02-22T14:06:48.775Z,97977.00
2024-02-22T14:09:18.953Z,97972.00
2024-02-22T14:11:49.243Z,97963.00
2024-02-22T14:14:18.316Z,97967.00
2024-02-22T14:16:47.435Z,97958.00
2024-02-22T14:19:16.412Z,97969.00
2024-02-22T14:21:45.271Z,97957.00
2024-02-22T14:24:14.461Z,97953.00
2024-02-22T14:26:45.245Z,97956.00
2024-02-22T14:29:15.503Z,97954.00
2024-02-22T14:31:44.293Z,97959.00
2024-02-22T14:34:14.500Z,97950.00
2024-02-22T14:36:43.790Z,97934.00
2024-02-22T14:39:13.441Z,97924.00
2024-02-22T14:41:42.201Z,97922.00
2024-02-22T14:44:11.075Z,97912.00
2024-02-22T14:46:41.243Z,97902.00
2024-02-22T14:49:10.210Z,97893.00
2024-02-22T14:51:40.314Z,97896.00
2024-02-22T14:54:09.124Z,97890.00
2024-02-22T14:56:49.791Z,97886.00
2024-02-22T14:59:20.081Z,97882.00
2024-02-22T15:01:48.979Z,97879.00
2024-02-22T15:04:17.838Z,97883.00
2024-02-22T15:06:47.034Z,97882.00
2024-02-22T15:09:17.484Z,97887.00
2024-02-22T15:11:50.425Z,97890.00
2024-02-22T15:14:19.422Z,97895.00
2024-02-22T15:16:49.026Z,97889.00
2024-02-22T15:19:17.943Z,97886.00
2024-02-22T15:21:47.185Z,97886.00
2024-02-22T15:24:15.980Z,97896.00
2024-02-22T15:26:46.146Z,97891.00
2024-02-22T15:29:15.024Z,97886.00
2024-02-22T15:31:43.819Z,97884.00
2024-02-22T15:34:12.712Z,97883.00
2024-02-22T15:36:41.747Z,97870.00
2024-02-22T15:39:11.542Z,97880.00
2024-02-22T15:41:41.727Z,97866.00
2024-02-22T15:44:12.093Z,97869.00
2024-02-22T15:46:40.976Z,97864.00
2024-02-22T15:49:15.650Z,97851.00
2024-02-22T15:51:45.248Z,97852.00
2024-02-22T15:54:14.290Z,97852.00
2024-02-22T15:56:43.450Z,97853.00
2024-02-22T15:59:15.338Z,97843.00
2024-02-22T16:01:44.371Z,97844.00
2024-02-22T16:04:13.267Z,97836.00
2024-02-22T16:06:42.041Z,97837.00
2024-02-22T16:09:10.794Z,97840.00
2024-02-22T16:11:39.691Z,97825.00
2024-02-22T16:14:08.677Z,97820.00
2024-02-22T16:16:39.068Z,97821.00
2024-02-22T16:19:07.869Z,97810.00
2024-02-22T16:21:36.655Z,97809.00
2024-02-22T16:24:05.893Z,97794.00
2024-02-22T16:26:35.272Z,97779.00
2024-02-22T16:29:04.205Z,97782.00
2024-02-22T16:31:32.968Z,97784.00
2024-02-22T16:34:03.187Z,97780.00
2024-02-22T16:36:32.017Z,97777.00
2024-02-22T16:39:07.280Z,97774.00
2024-02-22T16:41:37.961Z,97760.00
2024-02-22T16:44:07.362Z,97759.00
2024-02-22T16:46:36.095Z,97751.00
2024-02-22T16:49:06.274Z,97758.00
2024-02-22T16:51:35.067Z,97765.00
2024-02-22T16:54:03.819Z,97751.00
2024-02-22T16:56:32.544Z,97756.00
2024-02-22T16:59:05.165Z,97751.00
2024-02-22T17:01:33.978Z,97756.00
2024-02-22T17:04:02.825Z,97754.00
2024-02-22T17:06:34.437Z,97738.00
2024-02-22T17:09:03.407Z,97750.00
2024-02-22T17:11:32.309Z,97745.00
2024-02-22T17:14:01.855Z,97745.00
2024-02-22T17:16:30.694Z,97751.00
2024-02-22T17:18:59.575Z,97749.00
2024-02-22T17:21:28.458Z,97753.00
2024-02-22T17:23:58.646Z,97754.00
2024-02-22T17:26:27.684Z,97756.00
2024-02-22T17:28:57.176Z,97737.00
2024-02-22T17:31:26.028Z,97739.00
2024-02-22T17:33:54.763Z,97740.00
2024-02-22T17:36:23.566Z,97745.00
2024-02-22T17:38:52.386Z,97736.00
2024-02-22T17:41:22.959Z,97735.00
2024-02-22T17:43:51.837Z,97731.00
2024-02-22T17:46:20.855Z,97735.00
2024-02-22T17:48:49.595Z,97729.00
2024-02-22T17:51:19.659Z,97738.00
2024-02-22T17:53:49.031Z,97730.00
2024-02-22T17:56:17.878Z,97719.00
2024-02-22T17:58:55.132Z,97724.00
2024-02-22T18:01:25.964Z,97715.00
2024-02-22T18:03:54.955Z,97708.00
2024-02-22T18:06:23.896Z,97706.00
2024-02-22T18:08:53.447Z,97695.00
2024-02-22T18:11:22.307Z,97689.00
2024-02-22T18:13:52.559Z,97679.00
2024-02-22T18:16:22.549Z,97694.00
2024-02-22T18:18:51.312Z,97676.00
2024-02-22T18:21:20.133Z,97676.00
2024-02-22T18:23:48.908Z,97669.00
2024-02-22T18:26:17.717Z,97673.00
2024-02-22T18:28:46.611Z,97674.00
2024-02-22T18:31:16.722Z,97663.00
2024-02-22T18:33:45.771Z,97669.00
2024-02-22T18:36:14.744Z,97670.00
2024-02-22T18:38:44.265Z,97667.00
2024-02-22T18:41:14.959Z,97658.00
2024-02-22T18:43:44.112Z,97648.00
2024-02-22T18:46:13.159Z,97648.00
2024-02-22T18:48:43.401Z,97642.00
2024-02-22T18:51:14.107Z,97649.00
2024-02-22T18:53:43.107Z,97647.00
2024-02-22T18:56:11.897Z,97648.00
2024-02-22T18:58:41.008Z,97637.00
2024-02-22T19:01:10.007Z,97644.00
2024-02-22T19:03:38.784Z,97639.00
2024-02-22T19:06:09.118Z,97636.00
2024-02-22T19:08:39.144Z,97630.00
2024-02-22T19:11:08.361Z,97627.00
2024-02-22T19:13:40.209Z,97633.00
2024-02-22T19:16:09.490Z,97625.00
2024-02-22T19:18:38.458Z,97630.00
2024-02-22T19:21:10.491Z,97624.00
2024-02-22T19:23:39.522Z,97623.00
2024-02-22T19:26:08.414Z,97623.00
2024-02-22T19:28:37.227Z,97620.00
2024-02-22T19:31:06.150Z,97609.00
2024-02-22T19:33:35.182Z,97614.00
2024-02-22T19:36:05.925Z,97618.00
2024-02-22T19:38:36.071Z,97622.00
2024-02-22T19:41:08.775Z,97613.00
2024-02-22T19:43:38.269Z,97605.00
2024-02-22T19:46:07.528Z,97600.00
2024-02-22T19:48:37.322Z,97606.00
2024-02-22T19:51:06.631Z,97602.00
2024-02-22T19:53:36.735Z,97605.00
2024-02-22T19:56:06.755Z,97600.00
2024-02-22T19:58:35.541Z,97599.00
2024-02-22T20:01:04.925Z,97596.00
2024-02-22T20:03:33.710Z,97595.00
2024-02-22T20:06:02.790Z,97586.00
2024-02-22T20:08:31.590Z,97594.00
2024-02-22T20:11:04.698Z,97589.00
2024-02-22T20:13:34.511Z,97594.00
2024-02-22T20:16:03.636Z,97590.00
2024-02-22T20:18:32.440Z,97591.00
2024-02-22T20:21:01.982Z,97584.00
2024-02-22T20:23:31.082Z,97584.00
2024-02-22T20:26:01.363Z,97587.00
2024-02-22T20:28:30.769Z,97573.00
2024-02-22T20:30:59.549Z,97569.00
2024-02-22T20:33:28.463Z,97578.00
2024-02-22T20:35:58.876Z,97566.00
2024-02-22T20:38:28.673Z,97575.00
2024-02-22T20:40:58.278Z,97559.00
2024-02-22T20:43:30.558Z,97560.00
2024-02-22T20:45:59.361Z,97561.00
2024-02-22T20:48:29.127Z,97567.00
2024-02-22T20:50:58.688Z,97563.00
2024-02-22T20:53:30.340Z,97556.00
2024-02-22T20:56:00.302Z,97561.00
2024-02-22T20:58:30.514Z,97560.00
2024-02-22T21:01:00.278Z,97561.00
2024-02-22T21:03:29.582Z,97545.00
2024-02-22T21:05:58.849Z,97549.00
2024-02-22T21:08:30.259Z,97544.00
2024-02-22T21:11:07.421Z,97541.00
2024-02-22T21:13:37.917Z,97536.00
2024-02-22T21:16:07.357Z,97533.00
2024-02-22T21:18:36.418Z,97519.00
2024-02-22T21:21:07.179Z,97509.00
2024-02-22T21:23:36.174Z,97498.00
2024-02-22T21:26:05.105Z,97488.00
2024-02-22T21:28:33.918Z,97479.00
2024-02-22T21:31:04.040Z,97467.00
2024-02-22T21:33:32.984Z,97463.00
2024-02-22T21:36:01.809Z,97460.00
2024-02-22T21:38:30.586Z,97473.00
2024-02-22T21:41:00.735Z,97459.00
2024-02-22T21:43:29.500Z,97471.00
2024-02-22T21:45:58.180Z,97470.00
2024-02-22T21:48:32.091Z,97469.00
2024-02-22T21:51:07.960Z,97465.00
2024-02-22T21:53:38.064Z,97453.00
2024-02-22T21:56:07.709Z,97450.00
2024-02-22T21:58:37.088Z,97451.00
2024-02-22T22:01:06.318Z,97447.00
2024-02-22T22:03:36.600Z,97440.00
2024-02-22T22:06:05.902Z,97433.00
2024-02-22T22:08:35.011Z,97429.00
2024-02-22T22:11:08.005Z,97426.00
2024-02-22T22:13:37.110Z,97428.00
2024-02-22T22:16:06.998Z,97424.00
2024-02-22T22:18:37.296Z,97436.00
2024-02-22T22:21:13.867Z,97438.00
2024-02-22T22:23:50.124Z,97448.00
2024-02-22T22:26:19.430Z,97449.00
2024-02-22T22:28:48.517Z,97457.00
2024-02-22T22:31:17.485Z,97466.00
2024-02-22T22:33:48.233Z,97466.00
2024-02-22T22:36:17.473Z,97468.00
2024-02-22T22:38:46.298Z,97473.00
2024-02-22T22:41:15.227Z,97479.00
2024-02-22T22:43:45.642Z,97485.00
2024-02-22T22:46:14.501Z,97491.00
2024-02-22T22:48:43.322Z,97495.00
2024-02-22T22:51:13.467Z,97484.00
2024-02-22T22:53:42.458Z,97480.00
2024-02-22T22:56:11.821Z,97480.00
2024-02-22T22:58:40.862Z,97477.00
2024-02-22T23:01:09.777Z,97471.00
2024-02-22T23:03:38.606Z,97483.00
2024-02-22T23:06:09.027Z,97484.00
2024-02-22T23:08:39.308Z,97482.00
2024-02-22T23:11:08.229Z,97491.00
2024-02-22T23:13:37.165Z,97485.00
2024-02-22T23:16:06.708Z,97481.00
2024-02-22T23:18:35.942Z,97478.00
2024-02-22T23:21:05.123Z,97471.00
2024-02-22T23:23:34.127Z,97474.00
2024-02-22T23:26:04.528Z,97466.00
2024-02-22T23:28:33.262Z,97456.00
2024-02-22T23:31:02.208Z,97463.00
2024-02-22T23:33:31.589Z,97461.00
2024-02-22T23:36:00.420Z,97472.00
2024-02-22T23:38:29.284Z,97497.00
2024-02-22T23:41:10.560Z,97517.00
2024-02-22T23:43:48.764Z,97521.00
2024-02-22T23:46:17.538Z,97526.00
2024-02-22T23:48:46.362Z,97533.00
2024-02-22T23:51:15.083Z,97540.00
2024-02-22T23:53:43.830Z,97535.00
2024-02-22T23:56:15.190Z,97544.00
2024-02-22T23:58:44.033Z,97553.00
